createdAt,value
2017-09-14T00:00:07.744Z,16.05
2017-09-14T00:02:33.988Z,15.87
2017-09-14T00:05:00.268Z,15.64
2017-09-14T00:07:26.488Z,15.42
2017-09-14T00:09:52.702Z,15.46
2017-09-14T00:12:18.979Z,15.41
2017-09-14T00:14:45.204Z,15.38
2017-09-14T00:17:11.422Z,15.62
2017-09-14T00:19:37.776Z,15.64
2017-09-14T00:22:03.999Z,15.65
2017-09-14T00:24:30.240Z,15.53
2017-09-14T00:26:56.527Z,15.34
2017-09-14T00:29:22.745Z,15.40
2017-09-14T00:31:48.953Z,15.34
2017-09-14T00:34:15.238Z,15.20
2017-09-14T00:36:41.463Z,15.08
2017-09-14T00:39:07.686Z,14.98
2017-09-14T00:41:33.983Z,14.87
2017-09-14T00:44:00.223Z,14.93
2017-09-14T00:46:26.446Z,14.82
2017-09-14T00:48:52.724Z,14.73
2017-09-14T00:51:18.935Z,14.81
2017-09-14T00:53:45.166Z,15.03
2017-09-14T00:56:11.468Z,14.94
2017-09-14T00:58:37.702Z,14.85
2017-09-14T01:01:03.940Z,14.85
2017-09-14T01:03:30.220Z,14.75
2017-09-14T01:05:56.490Z,14.85
2017-09-14T01:08:22.710Z,14.88
2017-09-14T01:10:48.978Z,14.84
2017-09-14T01:13:15.210Z,14.73
2017-09-14T01:15:41.436Z,14.71
2017-09-14T01:18:07.728Z,14.65
2017-09-14T01:20:33.941Z,14.56
2017-09-14T01:23:00.156Z,14.84
2017-09-14T01:25:26.424Z,15.02
2017-09-14T01:27:52.637Z,15.04
2017-09-14T01:30:18.850Z,15.09
2017-09-14T01:32:45.125Z,15.22
2017-09-14T01:35:11.452Z,14.98
2017-09-14T01:37:37.673Z,14.86
2017-09-14T01:40:03.957Z,14.69
2017-09-14T01:42:30.177Z,14.55
2017-09-14T01:44:56.400Z,14.51
2017-09-14T01:47:22.695Z,14.51
2017-09-14T01:49:49.044Z,14.36
2017-09-14T01:52:15.272Z,14.28
2017-09-14T01:54:41.711Z,14.23
2017-09-14T01:57:08.098Z,14.23
2017-09-14T01:59:34.538Z,14.17
2017-09-14T02:02:01.012Z,14.22
2017-09-14T02:04:27.223Z,14.16
2017-09-14T02:06:53.428Z,14.16
2017-09-14T02:09:19.699Z,14.16
2017-09-14T02:11:45.913Z,14.11
2017-09-14T02:14:12.129Z,14.06
2017-09-14T02:16:38.416Z,14.02
2017-09-14T02:19:04.644Z,14.02
2017-09-14T02:21:30.884Z,14.01
2017-09-14T02:23:57.149Z,14.07
2017-09-14T02:26:23.374Z,14.00
2017-09-14T02:28:49.590Z,14.17
2017-09-14T02:31:15.894Z,14.24
2017-09-14T02:33:42.122Z,14.29
2017-09-14T02:36:08.360Z,14.23
2017-09-14T02:38:34.627Z,14.44
2017-09-14T02:41:00.840Z,14.32
2017-09-14T02:43:27.068Z,14.13
2017-09-14T02:45:53.358Z,14.00
2017-09-14T02:48:19.561Z,13.93
2017-09-14T02:50:45.789Z,13.89
2017-09-14T02:53:12.065Z,14.04
2017-09-14T02:55:38.280Z,14.12
2017-09-14T02:58:04.493Z,14.23
2017-09-14T03:00:30.763Z,14.10
2017-09-14T03:02:56.986Z,14.08
2017-09-14T03:05:23.211Z,13.99
2017-09-14T03:07:49.483Z,13.94
2017-09-14T03:10:15.698Z,13.91
2017-09-14T03:12:41.916Z,13.80
2017-09-14T03:15:08.176Z,13.74
2017-09-14T03:17:34.432Z,13.63
2017-09-14T03:20:00.657Z,13.58
2017-09-14T03:22:26.957Z,13.62
2017-09-14T03:24:53.177Z,13.75
2017-09-14T03:27:19.402Z,13.75
2017-09-14T03:29:45.688Z,13.62
2017-09-14T03:32:11.900Z,13.59
2017-09-14T03:34:38.113Z,13.59
2017-09-14T03:37:04.544Z,13.60
2017-09-14T03:39:30.758Z,13.57
2017-09-14T03:41:56.996Z,13.59
2017-09-14T03:44:23.272Z,13.50
2017-09-14T03:46:49.467Z,13.46
2017-09-14T03:49:15.691Z,13.55
2017-09-14T03:51:42.169Z,13.49
2017-09-14T03:54:08.611Z,13.56
2017-09-14T03:56:35.054Z,13.57
2017-09-14T03:59:01.569Z,13.58
2017-09-14T04:01:27.847Z,13.64
2017-09-14T04:03:54.131Z,13.68
2017-09-14T04:06:20.424Z,13.63
2017-09-14T04:08:46.652Z,13.63
2017-09-14T04:11:12.870Z,13.80
2017-09-14T04:13:39.144Z,14.25
2017-09-14T04:16:05.380Z,14.89
2017-09-14T04:18:31.600Z,15.29
2017-09-14T04:20:57.884Z,15.63
2017-09-14T04:23:24.520Z,16.01
2017-09-14T04:25:51.133Z,16.56
2017-09-14T04:28:17.414Z,17.23
2017-09-14T04:30:43.630Z,17.80
2017-09-14T04:33:09.845Z,18.31
2017-09-14T04:35:36.125Z,18.86
2017-09-14T04:38:02.336Z,19.19
2017-09-14T04:40:28.563Z,19.70
2017-09-14T04:42:54.836Z,19.98
2017-09-14T04:45:21.064Z,20.24
2017-09-14T04:47:47.283Z,20.56
2017-09-14T04:50:13.564Z,21.06
2017-09-14T04:52:39.805Z,21.38
2017-09-14T04:55:06.055Z,21.44
2017-09-14T04:57:32.351Z,21.61
2017-09-14T04:59:58.573Z,21.53
2017-09-14T05:02:24.803Z,21.89
2017-09-14T05:04:51.085Z,22.26
2017-09-14T05:07:17.315Z,22.76
2017-09-14T05:09:43.547Z,22.88
2017-09-14T05:12:09.835Z,23.35
2017-09-14T05:14:36.120Z,23.92
2017-09-14T05:17:02.346Z,23.87
2017-09-14T05:19:28.628Z,23.86
2017-09-14T05:21:54.841Z,24.03
2017-09-14T05:24:21.071Z,24.54
2017-09-14T05:26:47.339Z,24.88
2017-09-14T05:29:13.564Z,25.23
2017-09-14T05:31:43.698Z,26.22
2017-09-14T05:34:09.971Z,27.10
2017-09-14T05:36:36.198Z,27.47
2017-09-14T05:39:02.428Z,27.89
2017-09-14T05:41:28.751Z,28.08
2017-09-14T05:43:54.978Z,27.58
2017-09-14T05:46:21.204Z,27.73
2017-09-14T05:48:47.491Z,28.55
2017-09-14T05:51:13.729Z,28.87
2017-09-14T05:53:39.967Z,29.01
2017-09-14T05:56:06.261Z,28.95
2017-09-14T05:58:32.482Z,29.11
2017-09-14T06:00:58.709Z,29.95
2017-09-14T06:03:25.017Z,29.61
2017-09-14T06:05:51.250Z,29.67
2017-09-14T06:08:17.487Z,30.03
2017-09-14T06:10:43.744Z,30.68
2017-09-14T06:13:09.974Z,31.32
2017-09-14T06:15:36.216Z,31.28
2017-09-14T06:18:02.498Z,31.58
2017-09-14T06:20:28.728Z,31.86
2017-09-14T06:22:54.946Z,31.99
2017-09-14T06:25:21.242Z,31.66
2017-09-14T06:27:47.491Z,31.79
2017-09-14T06:30:13.734Z,32.40
2017-09-14T06:32:40.021Z,32.79
2017-09-14T06:35:06.240Z,32.41
2017-09-14T06:37:32.465Z,32.64
2017-09-14T06:39:58.775Z,32.26
2017-09-14T06:42:25.007Z,32.80
2017-09-14T06:44:51.240Z,32.98
2017-09-14T06:47:17.552Z,33.22
2017-09-14T06:49:43.795Z,32.79
2017-09-14T06:52:10.030Z,32.87
2017-09-14T06:54:36.317Z,33.97
2017-09-14T06:57:02.624Z,34.02
2017-09-14T06:59:28.863Z,34.08
2017-09-14T07:01:55.145Z,33.07
2017-09-14T07:04:21.364Z,33.17
2017-09-14T07:06:47.589Z,33.47
2017-09-14T07:09:13.865Z,33.97
2017-09-14T07:11:40.123Z,34.17
2017-09-14T07:14:06.346Z,34.23
2017-09-14T07:16:32.631Z,34.54
2017-09-14T07:18:58.846Z,35.34
2017-09-14T07:21:25.061Z,35.18
2017-09-14T07:23:51.336Z,34.64
2017-09-14T07:26:17.557Z,35.08
2017-09-14T07:28:43.777Z,34.97
2017-09-14T07:31:10.072Z,34.37
2017-09-14T07:33:36.307Z,35.25
2017-09-14T07:36:02.547Z,35.72
2017-09-14T07:38:28.833Z,34.95
2017-09-14T07:40:55.075Z,35.65
2017-09-14T07:43:21.299Z,35.60
2017-09-14T07:45:47.595Z,35.57
2017-09-14T07:48:13.965Z,36.16
2017-09-14T07:50:40.200Z,36.52
2017-09-14T07:53:06.470Z,36.52
2017-09-14T07:55:32.701Z,36.95
2017-09-14T07:57:58.923Z,36.65
2017-09-14T08:00:25.199Z,37.13
2017-09-14T08:02:51.429Z,36.81
2017-09-14T08:05:17.654Z,36.87
2017-09-14T08:07:43.938Z,37.10
2017-09-14T08:10:10.171Z,36.75
2017-09-14T08:12:36.401Z,37.22
2017-09-14T08:15:02.685Z,37.76
2017-09-14T08:17:28.925Z,37.88
2017-09-14T08:19:55.160Z,38.40
2017-09-14T08:22:21.437Z,38.59
2017-09-14T08:24:47.667Z,38.47
2017-09-14T08:27:13.903Z,38.67
2017-09-14T08:29:41.264Z,38.80
2017-09-14T08:32:07.502Z,38.65
2017-09-14T08:34:33.739Z,39.14
2017-09-14T08:37:00.027Z,38.28
2017-09-14T08:39:26.374Z,38.42
2017-09-14T08:41:52.608Z,37.93
2017-09-14T08:44:19.057Z,38.40
2017-09-14T08:46:45.291Z,36.84
2017-09-14T08:49:11.505Z,38.40
2017-09-14T08:51:37.774Z,38.04
2017-09-14T08:54:03.980Z,38.68
2017-09-14T08:56:30.202Z,37.99
2017-09-14T08:58:56.471Z,37.76
2017-09-14T09:01:22.706Z,38.17
2017-09-14T09:03:48.927Z,36.72
2017-09-14T09:06:15.212Z,37.75
2017-09-14T09:08:41.454Z,38.89
2017-09-14T09:11:07.682Z,38.42
2017-09-14T09:13:34.014Z,37.91
2017-09-14T09:16:00.248Z,38.08
2017-09-14T09:18:26.494Z,38.11
2017-09-14T09:20:52.743Z,38.59
2017-09-14T09:23:18.973Z,38.28
2017-09-14T09:25:45.332Z,38.31
2017-09-14T09:28:11.628Z,38.64
2017-09-14T09:30:37.850Z,38.17
2017-09-14T09:33:04.063Z,38.41
2017-09-14T09:35:30.343Z,38.93
2017-09-14T09:37:56.689Z,39.47
2017-09-14T09:40:22.912Z,39.77
2017-09-14T09:42:49.346Z,39.88
2017-09-14T09:45:15.577Z,39.29
2017-09-14T09:47:42.001Z,38.21
2017-09-14T09:50:08.262Z,38.21
2017-09-14T09:52:34.481Z,39.21
2017-09-14T09:55:00.704Z,39.89
2017-09-14T09:57:26.981Z,39.68
2017-09-14T09:59:53.198Z,39.71
2017-09-14T10:02:19.416Z,40.01
2017-09-14T10:04:45.704Z,40.19
2017-09-14T10:07:11.927Z,39.63
2017-09-14T10:09:38.140Z,38.24
2017-09-14T10:12:04.494Z,37.67
2017-09-14T10:14:30.738Z,38.49
2017-09-14T10:16:57.000Z,38.15
2017-09-14T10:19:23.284Z,38.03
2017-09-14T10:21:49.500Z,37.23
2017-09-14T10:24:15.728Z,37.18
2017-09-14T10:26:42.012Z,36.77
2017-09-14T10:29:08.226Z,38.22
2017-09-14T10:31:34.444Z,38.72
2017-09-14T10:34:00.747Z,39.37
2017-09-14T10:36:26.989Z,39.09
2017-09-14T10:38:53.194Z,39.56
2017-09-14T10:41:19.471Z,39.44
2017-09-14T10:43:45.701Z,39.70
2017-09-14T10:46:11.920Z,39.11
2017-09-14T10:48:38.340Z,36.95
2017-09-14T10:51:04.553Z,36.07
2017-09-14T10:53:30.822Z,36.24
2017-09-14T10:55:57.138Z,36.02
2017-09-14T10:58:23.333Z,36.05
2017-09-14T11:00:49.547Z,36.35
2017-09-14T11:03:15.828Z,36.91
2017-09-14T11:05:42.047Z,37.58
2017-09-14T11:08:08.280Z,39.00
2017-09-14T11:10:34.587Z,39.78
2017-09-14T11:13:00.793Z,39.45
2017-09-14T11:15:27.000Z,38.84
2017-09-14T11:17:53.261Z,38.89
2017-09-14T11:20:19.473Z,39.66
2017-09-14T11:22:45.689Z,40.00
2017-09-14T11:25:11.949Z,40.00
2017-09-14T11:27:38.186Z,40.81
2017-09-14T11:30:04.409Z,41.41
2017-09-14T11:32:30.690Z,40.58
2017-09-14T11:34:56.923Z,40.69
2017-09-14T11:37:23.149Z,41.41
2017-09-14T11:39:49.425Z,41.31
2017-09-14T11:42:15.677Z,41.40
2017-09-14T11:44:41.880Z,40.02
2017-09-14T11:47:08.153Z,38.45
2017-09-14T11:49:34.379Z,38.84
2017-09-14T11:52:00.607Z,38.65
2017-09-14T11:54:26.896Z,39.11
2017-09-14T11:56:53.126Z,40.10
2017-09-14T11:59:19.337Z,39.83
2017-09-14T12:01:45.609Z,39.50
2017-09-14T12:04:12.028Z,40.35
2017-09-14T12:06:38.279Z,41.47
2017-09-14T12:09:04.549Z,42.09
2017-09-14T12:11:30.759Z,41.07
2017-09-14T12:13:56.967Z,41.07
2017-09-14T12:16:23.252Z,40.54
2017-09-14T12:18:49.487Z,40.54
2017-09-14T12:21:15.714Z,41.59
2017-09-14T12:23:41.995Z,41.94
2017-09-14T12:26:08.309Z,42.27
2017-09-14T12:28:34.517Z,40.99
2017-09-14T12:31:00.800Z,40.07
2017-09-14T12:33:27.008Z,41.25
2017-09-14T12:35:53.223Z,41.09
2017-09-14T12:38:19.483Z,40.63
2017-09-14T12:40:45.701Z,39.99
2017-09-14T12:43:11.907Z,39.91
2017-09-14T12:45:38.210Z,40.85
2017-09-14T12:48:04.429Z,41.00
2017-09-14T12:50:30.647Z,41.38
2017-09-14T12:52:56.925Z,42.31
2017-09-14T12:55:23.145Z,40.63
2017-09-14T12:57:49.355Z,41.67
2017-09-14T13:00:15.637Z,41.54
2017-09-14T13:02:41.854Z,40.36
2017-09-14T13:05:08.098Z,40.65
2017-09-14T13:07:34.386Z,40.21
2017-09-14T13:10:00.616Z,39.61
2017-09-14T13:12:26.837Z,38.85
2017-09-14T13:14:53.103Z,38.72
2017-09-14T13:17:19.327Z,38.65
2017-09-14T13:19:45.546Z,38.59
2017-09-14T13:22:11.803Z,37.64
2017-09-14T13:24:38.013Z,37.48
2017-09-14T13:27:04.231Z,36.91
2017-09-14T13:29:30.494Z,35.41
2017-09-14T13:31:56.726Z,34.49
2017-09-14T13:34:22.960Z,34.55
2017-09-14T13:36:49.232Z,33.99
2017-09-14T13:39:15.439Z,33.60
2017-09-14T13:41:41.668Z,33.48
2017-09-14T13:44:07.928Z,33.42
2017-09-14T13:46:34.148Z,33.35
2017-09-14T13:49:00.458Z,33.11
2017-09-14T13:51:26.732Z,33.01
2017-09-14T13:53:52.956Z,32.83
2017-09-14T13:56:19.178Z,32.82
2017-09-14T13:58:45.461Z,32.60
2017-09-14T14:01:11.800Z,32.56
2017-09-14T14:03:38.020Z,32.43
2017-09-14T14:06:04.290Z,32.23
2017-09-14T14:08:30.506Z,32.22
2017-09-14T14:10:56.724Z,32.29
2017-09-14T14:13:23.024Z,32.32
2017-09-14T14:15:49.236Z,32.38
2017-09-14T14:18:15.459Z,32.47
2017-09-14T14:20:41.752Z,32.33
2017-09-14T14:23:07.958Z,32.29
2017-09-14T14:25:34.178Z,32.31
2017-09-14T14:28:00.447Z,32.20
2017-09-14T14:30:26.678Z,32.17
2017-09-14T14:32:52.893Z,32.01
2017-09-14T14:35:19.223Z,31.70
2017-09-14T14:37:45.481Z,31.40
2017-09-14T14:40:11.708Z,31.55
2017-09-14T14:42:37.989Z,31.55
2017-09-14T14:45:04.219Z,31.55
2017-09-14T14:47:30.558Z,31.51
2017-09-14T14:49:56.836Z,31.55
2017-09-14T14:52:23.046Z,31.53
2017-09-14T14:54:49.254Z,31.50
2017-09-14T14:57:15.524Z,31.43
2017-09-14T14:59:41.737Z,31.36
2017-09-14T15:02:07.955Z,31.35
2017-09-14T15:04:34.222Z,31.28
2017-09-14T15:07:00.438Z,31.24
2017-09-14T15:09:26.661Z,31.25
2017-09-14T15:11:52.925Z,31.17
2017-09-14T15:14:19.146Z,31.03
2017-09-14T15:16:45.359Z,30.92
2017-09-14T15:19:11.761Z,30.87
2017-09-14T15:21:37.968Z,30.80
2017-09-14T15:24:04.166Z,30.77
2017-09-14T15:26:30.448Z,30.63
2017-09-14T15:28:56.673Z,30.58
2017-09-14T15:31:22.896Z,30.58
2017-09-14T15:33:49.159Z,30.47
2017-09-14T15:36:15.375Z,30.46
2017-09-14T15:38:41.590Z,30.38
2017-09-14T15:41:07.883Z,30.31
2017-09-14T15:43:34.441Z,30.23
2017-09-14T15:48:33.103Z,29.97
2017-09-14T15:50:59.420Z,29.94
2017-09-14T15:53:25.985Z,29.77
2017-09-14T15:55:52.344Z,29.61
2017-09-14T15:58:18.580Z,29.51
2017-09-14T16:00:44.813Z,29.33
2017-09-14T16:03:11.350Z,29.22
2017-09-14T16:05:37.970Z,29.09
2017-09-14T16:08:04.389Z,28.89
2017-09-14T16:10:30.830Z,28.72
2017-09-14T16:12:57.050Z,28.48
2017-09-14T16:15:23.298Z,28.33
2017-09-14T16:17:49.568Z,28.09
2017-09-14T16:20:15.788Z,27.94
2017-09-14T16:22:42.195Z,27.83
2017-09-14T16:25:08.622Z,27.68
2017-09-14T16:27:35.055Z,27.53
2017-09-14T16:30:01.496Z,27.29
2017-09-14T16:32:28.279Z,27.07
2017-09-14T16:34:54.507Z,26.80
2017-09-14T16:37:20.721Z,26.51
2017-09-14T16:39:47.027Z,26.31
2017-09-14T16:42:13.255Z,26.19
2017-09-14T16:44:39.580Z,25.95
2017-09-14T16:47:06.220Z,25.86
2017-09-14T16:49:33.474Z,25.67
2017-09-14T16:52:00.116Z,25.47
2017-09-14T16:54:26.537Z,25.22
2017-09-14T16:56:52.767Z,25.05
2017-09-14T16:59:18.993Z,24.89
2017-09-14T17:01:45.441Z,24.73
2017-09-14T17:04:11.646Z,24.60
2017-09-14T17:06:37.895Z,24.43
2017-09-14T17:09:04.328Z,24.19
2017-09-14T17:11:30.761Z,24.05
2017-09-14T17:13:57.402Z,23.87
2017-09-14T17:16:23.816Z,23.76
2017-09-14T17:18:50.268Z,23.67
2017-09-14T17:21:16.496Z,23.70
2017-09-14T17:23:43.099Z,23.53
2017-09-14T17:26:09.416Z,23.43
2017-09-14T17:28:36.001Z,23.28
2017-09-14T17:31:02.427Z,23.22
2017-09-14T17:33:28.856Z,23.14
2017-09-14T17:35:55.049Z,22.95
2017-09-14T17:38:21.520Z,22.94
2017-09-14T17:40:47.822Z,22.84
2017-09-14T17:43:14.023Z,22.82
2017-09-14T17:45:40.419Z,22.79
2017-09-14T17:48:06.632Z,22.82
2017-09-14T17:50:32.833Z,22.72
2017-09-14T17:52:59.105Z,22.67
2017-09-14T17:55:25.311Z,22.61
2017-09-14T17:57:51.719Z,22.53
2017-09-14T18:00:18.232Z,22.46
2017-09-14T18:02:44.614Z,22.26
2017-09-14T18:05:10.862Z,22.17
2017-09-14T18:07:37.479Z,22.02
2017-09-14T18:10:03.731Z,22.00
2017-09-14T18:12:30.093Z,21.95
2017-09-14T18:14:56.538Z,21.87
2017-09-14T18:17:22.979Z,21.79
2017-09-14T18:19:49.396Z,21.66
2017-09-14T18:22:15.690Z,21.72
2017-09-14T18:27:14.702Z,21.59
2017-09-14T18:29:41.317Z,21.49
2017-09-14T18:32:07.736Z,21.41
2017-09-14T18:34:33.986Z,21.34
2017-09-14T18:37:00.633Z,21.14
2017-09-14T18:39:26.985Z,21.19
2017-09-14T18:41:53.297Z,21.13
2017-09-14T18:44:19.934Z,21.25
2017-09-14T18:46:46.152Z,21.23
2017-09-14T18:49:12.372Z,21.14
2017-09-14T18:51:38.617Z,21.08
2017-09-14T18:54:05.111Z,20.94
2017-09-14T18:56:31.478Z,20.92
2017-09-14T18:58:57.701Z,20.86
2017-09-14T19:01:23.938Z,20.80
2017-09-14T19:03:50.307Z,20.72
2017-09-14T19:06:16.599Z,20.64
2017-09-14T19:08:42.989Z,20.59
2017-09-14T19:11:09.675Z,20.58
2017-09-14T19:13:35.898Z,20.65
2017-09-14T19:16:02.129Z,20.57
2017-09-14T19:18:28.654Z,20.64
2017-09-14T19:20:55.083Z,20.60
2017-09-14T19:23:21.285Z,20.62
2017-09-14T19:25:47.762Z,20.60
2017-09-14T19:28:14.403Z,20.61
2017-09-14T19:30:40.636Z,20.61
2017-09-14T19:33:07.293Z,20.60
2017-09-14T19:35:33.704Z,20.59
2017-09-14T19:38:00.036Z,20.58
2017-09-14T19:40:26.515Z,20.57
2017-09-14T19:42:52.961Z,20.50
2017-09-14T19:45:19.338Z,20.43
2017-09-14T19:47:45.764Z,20.37
2017-09-14T19:50:11.979Z,20.25
2017-09-14T19:52:38.368Z,20.21
2017-09-14T19:55:04.611Z,20.17
2017-09-14T19:57:31.178Z,20.09
2017-09-14T19:59:57.573Z,19.98
2017-09-14T20:02:24.041Z,19.91
2017-09-14T20:04:50.497Z,19.81
2017-09-14T20:07:17.132Z,19.75
2017-09-14T20:09:43.552Z,19.62
2017-09-14T20:12:09.793Z,19.57
2017-09-14T20:14:36.398Z,19.50
2017-09-14T20:17:02.821Z,19.53
2017-09-14T20:19:29.263Z,19.56
2017-09-14T20:21:59.416Z,19.52
2017-09-14T20:24:26.053Z,19.56
2017-09-14T20:26:52.489Z,19.64
2017-09-14T20:29:18.980Z,19.63
2017-09-14T20:31:45.667Z,19.55
2017-09-14T20:34:12.215Z,19.52
2017-09-14T20:36:38.683Z,19.50
2017-09-14T20:39:05.121Z,19.50
2017-09-14T20:41:31.707Z,19.50
2017-09-14T20:43:58.182Z,19.53
2017-09-14T20:46:24.626Z,19.55
2017-09-14T20:48:51.042Z,19.48
2017-09-14T20:51:17.386Z,19.50
2017-09-14T20:53:43.826Z,19.51
2017-09-14T20:56:10.207Z,19.65
2017-09-14T20:58:36.487Z,19.49
2017-09-14T21:01:02.866Z,19.28
2017-09-14T21:03:29.468Z,19.10
2017-09-14T21:05:55.882Z,19.12
2017-09-14T21:08:22.362Z,18.92
2017-09-14T21:10:48.566Z,18.80
2017-09-14T21:13:14.821Z,18.79
2017-09-14T21:15:41.260Z,18.72
2017-09-14T21:18:07.487Z,18.64
2017-09-14T21:20:33.719Z,18.62
2017-09-14T21:22:59.961Z,18.50
2017-09-14T21:25:26.543Z,18.38
2017-09-14T21:27:52.964Z,18.43
2017-09-14T21:30:19.405Z,18.45
2017-09-14T21:32:45.824Z,18.43
2017-09-14T21:35:12.112Z,18.48
2017-09-14T21:37:38.732Z,18.49
2017-09-14T21:40:04.980Z,18.47
2017-09-14T21:42:31.269Z,18.44
2017-09-14T21:44:57.536Z,18.49
2017-09-14T21:47:23.746Z,18.41
2017-09-14T21:49:49.965Z,18.37
2017-09-14T21:52:16.297Z,18.23
2017-09-14T21:54:42.520Z,18.08
2017-09-14T21:57:08.733Z,18.04
2017-09-14T21:59:34.987Z,18.14
2017-09-14T22:02:01.199Z,18.11
2017-09-14T22:04:27.409Z,17.96
2017-09-14T22:06:53.685Z,17.93
2017-09-14T22:09:19.897Z,18.05
2017-09-14T22:11:46.107Z,17.98
2017-09-14T22:14:12.691Z,17.88
2017-09-14T22:16:39.182Z,17.80
2017-09-14T22:19:05.633Z,17.73
2017-09-14T22:21:31.921Z,17.72
2017-09-14T22:23:58.142Z,17.81
2017-09-14T22:26:24.357Z,17.90
2017-09-14T22:28:50.622Z,17.84
2017-09-14T22:31:16.846Z,17.96
2017-09-14T22:33:43.063Z,17.97
2017-09-14T22:36:09.335Z,17.86
2017-09-14T22:38:35.551Z,17.82
2017-09-14T22:41:01.779Z,17.90
2017-09-14T22:43:28.066Z,17.85
2017-09-14T22:45:54.284Z,17.82
2017-09-14T22:48:20.511Z,17.85
2017-09-14T22:50:46.796Z,17.84
2017-09-14T22:53:13.020Z,17.76
2017-09-14T22:55:39.240Z,17.83
2017-09-14T22:58:05.540Z,17.65
2017-09-14T23:00:31.747Z,17.54
2017-09-14T23:02:57.968Z,17.49
2017-09-14T23:05:24.238Z,17.33
2017-09-14T23:07:50.451Z,17.19
2017-09-14T23:10:16.853Z,17.09
2017-09-14T23:12:43.132Z,17.13
2017-09-14T23:15:09.352Z,17.22
2017-09-14T23:17:35.578Z,17.23
2017-09-14T23:20:01.842Z,17.18
2017-09-14T23:22:28.200Z,17.16
2017-09-14T23:24:54.390Z,17.16
2017-09-14T23:27:20.668Z,17.16
2017-09-14T23:29:46.873Z,17.05
2017-09-14T23:32:13.086Z,16.97
2017-09-14T23:34:39.354Z,16.92
2017-09-14T23:37:05.564Z,16.92
2017-09-14T23:39:31.786Z,17.10
2017-09-14T23:41:58.050Z,17.03
2017-09-14T23:44:24.272Z,16.96
2017-09-14T23:46:50.485Z,16.87
2017-09-14T23:49:16.748Z,16.79
2017-09-14T23:51:42.961Z,16.87
2017-09-14T23:54:09.186Z,16.84
2017-09-14T23:56:35.466Z,16.83
2017-09-14T23:59:01.692Z,16.91
